createdAt,value
2023-03-31T00:01:01.753Z,45.80
2023-03-31T00:03:29.464Z,45.71
2023-03-31T00:05:58.907Z,45.69
2023-03-31T00:08:30.099Z,45.61
2023-03-31T00:11:02.453Z,45.61
2023-03-31T00:13:31.250Z,45.55
2023-03-31T00:16:02.680Z,45.77
2023-03-31T00:18:30.963Z,45.67
2023-03-31T00:21:14.281Z,45.65
2023-03-31T00:23:42.125Z,45.53
2023-03-31T00:26:09.697Z,45.67
2023-03-31T00:28:37.210Z,45.69
2023-03-31T00:31:04.802Z,45.78
2023-03-31T00:33:32.396Z,45.57
2023-03-31T00:36:02.530Z,45.47
2023-03-31T00:38:30.732Z,45.47
2023-03-31T00:40:59.941Z,45.37
2023-03-31T00:43:35.668Z,45.40
2023-03-31T00:46:24.502Z,45.45
2023-03-31T00:48:57.596Z,44.85
2023-03-31T00:51:29.601Z,45.26
2023-03-31T00:54:01.929Z,45.27
2023-03-31T00:56:35.133Z,44.91
2023-03-31T00:59:07.849Z,44.91
2023-03-31T01:01:36.519Z,44.83
2023-03-31T01:04:07.653Z,44.98
2023-03-31T01:06:57.228Z,45.05
2023-03-31T01:09:25.664Z,44.69
2023-03-31T01:11:53.470Z,44.77
2023-03-31T01:14:20.954Z,44.53
2023-03-31T01:16:48.509Z,44.63
2023-03-31T01:19:49.837Z,44.63
2023-03-31T01:22:45.810Z,44.54
2023-03-31T01:25:21.803Z,44.47
2023-03-31T01:28:15.632Z,44.42
2023-03-31T01:31:34.610Z,44.37
2023-03-31T01:34:25.034Z,44.20
2023-03-31T01:37:17.037Z,44.52
2023-03-31T01:40:14.361Z,44.38
2023-03-31T01:42:52.728Z,44.42
2023-03-31T01:45:39.411Z,44.61
2023-03-31T01:48:21.114Z,44.49
2023-03-31T01:50:56.427Z,44.59
2023-03-31T01:53:41.673Z,44.91
2023-03-31T01:56:48.467Z,45.27
2023-03-31T01:59:34.212Z,45.14
2023-03-31T02:02:19.960Z,45.54
2023-03-31T02:04:57.031Z,45.47
2023-03-31T02:07:48.348Z,45.50
2023-03-31T02:10:18.375Z,45.50
2023-03-31T02:12:48.537Z,46.12
2023-03-31T02:15:25.287Z,46.14
2023-03-31T02:17:58.939Z,46.01
2023-03-31T02:20:29.398Z,45.75
2023-03-31T02:22:58.489Z,46.01
2023-03-31T02:25:35.973Z,46.09
2023-03-31T02:28:12.761Z,46.08
2023-03-31T02:31:09.670Z,46.05
2023-03-31T02:33:37.476Z,46.02
2023-03-31T02:36:06.265Z,46.23
2023-03-31T02:38:41.995Z,46.43
2023-03-31T02:41:10.183Z,46.57
2023-03-31T02:43:37.959Z,46.56
2023-03-31T02:46:05.842Z,46.92
2023-03-31T02:48:40.134Z,46.84
2023-03-31T02:51:10.444Z,46.75
2023-03-31T02:53:47.137Z,46.29
2023-03-31T02:56:59.733Z,46.42
2023-03-31T02:59:39.165Z,46.63
2023-03-31T03:02:27.231Z,46.94
2023-03-31T03:05:26.027Z,46.80
2023-03-31T03:08:35.584Z,47.20
2023-03-31T03:11:32.067Z,47.03
2023-03-31T03:14:23.557Z,47.20
2023-03-31T03:17:23.159Z,47.32
2023-03-31T03:19:58.812Z,47.48
2023-03-31T03:22:26.326Z,47.55
2023-03-31T03:24:54.126Z,47.77
2023-03-31T03:27:24.500Z,47.73
2023-03-31T03:29:52.034Z,47.91
2023-03-31T03:32:19.584Z,47.70
2023-03-31T03:34:47.068Z,48.13
2023-03-31T03:37:14.590Z,48.31
2023-03-31T03:39:42.084Z,48.33
2023-03-31T03:42:09.615Z,48.21
2023-03-31T03:44:37.117Z,48.21
2023-03-31T03:47:04.904Z,48.18
2023-03-31T03:49:32.399Z,47.88
2023-03-31T03:52:00.038Z,48.03
2023-03-31T03:54:27.587Z,48.03
2023-03-31T03:56:55.132Z,48.15
2023-03-31T03:59:22.975Z,48.24
2023-03-31T04:01:50.660Z,48.03
2023-03-31T04:04:18.706Z,48.20
2023-03-31T04:06:46.243Z,48.45
2023-03-31T04:09:13.754Z,48.59
2023-03-31T04:11:41.304Z,48.74
2023-03-31T04:14:08.896Z,48.83
2023-03-31T04:16:36.565Z,48.85
2023-03-31T04:19:05.128Z,49.00
2023-03-31T04:21:34.830Z,49.05
2023-03-31T04:24:04.789Z,49.20
2023-03-31T04:26:43.916Z,49.04
2023-03-31T04:29:14.136Z,49.19
2023-03-31T04:31:43.468Z,49.25
2023-03-31T04:34:14.635Z,49.34
2023-03-31T04:36:49.299Z,48.93
2023-03-31T04:39:26.576Z,49.26
2023-03-31T04:41:54.642Z,49.15
2023-03-31T04:44:22.339Z,49.25
2023-03-31T04:46:49.948Z,49.21
2023-03-31T04:49:17.476Z,49.21
2023-03-31T04:51:45.156Z,49.34
2023-03-31T04:54:13.045Z,49.32
2023-03-31T04:56:40.575Z,50.01
2023-03-31T04:59:08.577Z,49.92
2023-03-31T05:01:36.458Z,50.12
2023-03-31T05:04:05.453Z,50.40
2023-03-31T05:06:33.554Z,50.54
2023-03-31T05:09:01.123Z,50.60
2023-03-31T05:11:28.980Z,50.84
2023-03-31T05:13:56.706Z,51.44
2023-03-31T05:16:24.235Z,51.61
2023-03-31T05:18:51.977Z,52.31
2023-03-31T05:21:21.459Z,52.68
2023-03-31T05:23:49.476Z,53.37
2023-03-31T05:26:17.133Z,53.27
2023-03-31T05:28:44.693Z,53.93
2023-03-31T05:31:13.223Z,54.15
2023-03-31T05:33:42.128Z,54.68
2023-03-31T05:36:12.942Z,55.13
2023-03-31T05:38:41.108Z,54.95
2023-03-31T05:41:10.900Z,55.08
2023-03-31T05:43:39.724Z,54.83
2023-03-31T05:46:08.059Z,55.36
2023-03-31T05:48:37.972Z,55.60
2023-03-31T05:51:06.006Z,55.60
2023-03-31T05:53:34.090Z,55.86
2023-03-31T05:56:04.369Z,55.76
2023-03-31T05:58:33.576Z,55.75
2023-03-31T06:01:11.343Z,55.55
2023-03-31T06:03:42.772Z,55.47
2023-03-31T06:06:12.988Z,55.79
2023-03-31T06:08:41.416Z,55.90
2023-03-31T06:11:12.384Z,56.19
2023-03-31T06:13:41.196Z,55.84
2023-03-31T06:16:10.991Z,55.87
2023-03-31T06:18:39.601Z,55.85
2023-03-31T06:21:08.040Z,55.73
2023-03-31T06:23:35.860Z,56.06
2023-03-31T06:26:07.071Z,56.02
2023-03-31T06:28:36.519Z,55.96
2023-03-31T06:31:13.306Z,55.73
2023-03-31T06:33:43.364Z,55.84
2023-03-31T06:36:14.722Z,55.82
2023-03-31T06:38:43.151Z,55.83
2023-03-31T06:41:13.712Z,55.97
2023-03-31T06:43:41.425Z,56.14
2023-03-31T06:46:09.601Z,55.93
2023-03-31T06:48:37.427Z,56.21
2023-03-31T06:51:07.224Z,56.34
2023-03-31T06:53:35.742Z,56.44
2023-03-31T06:56:04.950Z,56.67
2023-03-31T06:58:32.848Z,56.97
2023-03-31T07:03:32.873Z,57.09
2023-03-31T07:06:01.169Z,57.21
2023-03-31T07:08:28.792Z,57.42
2023-03-31T07:10:59.768Z,57.40
2023-03-31T07:13:28.750Z,57.38
2023-03-31T07:15:56.630Z,57.26
2023-03-31T07:18:26.092Z,57.60
2023-03-31T07:20:53.938Z,57.08
2023-03-31T07:23:21.588Z,57.36
2023-03-31T07:25:49.489Z,57.59
2023-03-31T07:28:17.300Z,57.32
2023-03-31T07:30:44.877Z,57.37
2023-03-31T07:33:12.527Z,57.15
2023-03-31T07:35:41.685Z,57.45
2023-03-31T07:38:11.128Z,57.45
2023-03-31T07:40:40.145Z,57.11
2023-03-31T07:43:08.509Z,56.92
2023-03-31T07:45:36.269Z,57.13
2023-03-31T07:48:03.921Z,56.98
2023-03-31T07:50:31.832Z,57.73
2023-03-31T07:53:01.743Z,57.27
2023-03-31T07:55:29.483Z,57.25
2023-03-31T07:57:57.346Z,57.14
2023-03-31T08:00:25.127Z,56.60
2023-03-31T08:02:52.913Z,56.20
2023-03-31T08:05:21.839Z,56.03
2023-03-31T08:07:50.777Z,55.48
2023-03-31T08:10:26.225Z,55.40
2023-03-31T08:12:54.061Z,55.48
2023-03-31T08:15:22.356Z,55.31
2023-03-31T08:17:49.950Z,55.46
2023-03-31T08:20:17.661Z,54.82
2023-03-31T08:22:45.230Z,54.90
2023-03-31T08:25:12.812Z,54.90
2023-03-31T08:27:41.104Z,54.70
2023-03-31T08:30:11.478Z,54.51
2023-03-31T08:32:39.088Z,53.77
2023-03-31T08:35:08.444Z,54.04
2023-03-31T08:37:37.412Z,53.95
2023-03-31T08:40:09.487Z,53.50
2023-03-31T08:42:50.079Z,53.19
2023-03-31T08:45:37.265Z,53.38
2023-03-31T08:48:19.604Z,53.56
2023-03-31T08:50:54.157Z,52.55
2023-03-31T08:53:39.276Z,52.15
2023-03-31T08:56:16.032Z,52.35
2023-03-31T08:58:52.701Z,51.48
2023-03-31T09:01:55.777Z,51.51
2023-03-31T09:04:32.888Z,51.16
2023-03-31T09:07:47.065Z,50.36
2023-03-31T09:10:37.751Z,50.42
2023-03-31T09:13:55.375Z,50.30
2023-03-31T09:16:59.818Z,48.92
2023-03-31T09:19:45.380Z,48.54
2023-03-31T09:22:25.522Z,48.39
2023-03-31T09:25:10.229Z,48.00
2023-03-31T09:27:42.433Z,47.98
2023-03-31T09:30:33.592Z,47.52
2023-03-31T09:33:16.869Z,47.74
2023-03-31T09:35:46.282Z,47.36
2023-03-31T09:38:16.162Z,46.21
2023-03-31T09:40:44.092Z,45.99
2023-03-31T09:43:31.375Z,45.35
2023-03-31T09:46:14.948Z,44.54
2023-03-31T09:49:02.413Z,44.08
2023-03-31T09:51:37.143Z,43.80
2023-03-31T09:54:19.866Z,42.83
2023-03-31T09:56:53.400Z,41.71
2023-03-31T09:59:23.484Z,42.25
2023-03-31T10:01:56.721Z,42.15
2023-03-31T10:04:33.346Z,42.22
2023-03-31T10:07:04.046Z,42.13
2023-03-31T10:09:34.191Z,40.75
2023-03-31T10:12:20.248Z,40.13
2023-03-31T10:14:51.020Z,41.30
2023-03-31T10:17:27.645Z,41.31
2023-03-31T10:20:08.202Z,41.65
2023-03-31T10:22:44.754Z,41.55
2023-03-31T10:25:23.963Z,41.96
2023-03-31T10:27:56.690Z,41.18
2023-03-31T10:30:35.398Z,41.75
2023-03-31T10:33:22.777Z,43.39
2023-03-31T10:35:58.347Z,43.83
2023-03-31T10:38:45.057Z,41.91
2023-03-31T10:41:18.456Z,41.30
2023-03-31T10:43:55.589Z,40.95
2023-03-31T10:46:50.122Z,41.03
2023-03-31T10:49:27.483Z,41.34
2023-03-31T10:52:00.976Z,41.18
2023-03-31T10:54:28.473Z,41.16
2023-03-31T10:57:03.208Z,40.72
2023-03-31T11:00:13.184Z,41.21
2023-03-31T11:03:26.232Z,40.58
2023-03-31T11:06:31.830Z,40.03
2023-03-31T11:09:22.508Z,43.13
2023-03-31T11:12:12.157Z,48.10
2023-03-31T11:15:21.742Z,50.42
2023-03-31T11:18:37.483Z,53.08
2023-03-31T11:21:45.376Z,57.26
2023-03-31T11:25:10.055Z,57.05
2023-03-31T11:27:53.713Z,56.16
2023-03-31T11:30:44.266Z,57.72
2023-03-31T11:33:47.987Z,59.11
2023-03-31T11:36:28.751Z,56.89
2023-03-31T11:39:21.994Z,58.26
2023-03-31T11:41:58.306Z,57.40
2023-03-31T11:44:32.344Z,56.67
2023-03-31T11:47:17.194Z,57.28
2023-03-31T11:49:55.934Z,57.12
2023-03-31T11:52:34.828Z,57.69
2023-03-31T11:55:22.030Z,57.59
2023-03-31T11:58:08.450Z,55.73
2023-03-31T12:00:51.749Z,57.05
2023-03-31T12:04:01.880Z,56.25
2023-03-31T12:06:35.142Z,56.78
2023-03-31T12:09:27.499Z,55.78
2023-03-31T12:12:05.133Z,55.52
2023-03-31T12:14:51.401Z,55.15
2023-03-31T12:17:26.524Z,55.06
2023-03-31T12:20:02.131Z,54.65
2023-03-31T12:22:39.538Z,53.97
2023-03-31T12:25:16.495Z,54.25
2023-03-31T12:27:51.418Z,53.53
2023-03-31T12:30:34.947Z,53.36
2023-03-31T12:33:27.474Z,53.25
2023-03-31T12:36:12.962Z,52.04
2023-03-31T12:38:58.258Z,51.80
2023-03-31T12:41:40.794Z,50.92
2023-03-31T12:44:53.520Z,49.25
2023-03-31T12:47:38.115Z,49.53
2023-03-31T12:50:11.689Z,48.92
2023-03-31T12:53:20.789Z,48.57
2023-03-31T12:55:54.784Z,46.05
2023-03-31T12:58:26.585Z,46.30
2023-03-31T13:01:07.682Z,45.00
2023-03-31T13:04:21.373Z,44.58
2023-03-31T13:06:54.465Z,46.30
2023-03-31T13:09:52.072Z,47.55
2023-03-31T13:12:23.408Z,48.00
2023-03-31T13:14:54.404Z,49.16
2023-03-31T13:17:38.318Z,50.48
2023-03-31T13:20:33.204Z,50.83
2023-03-31T13:23:25.506Z,49.87
2023-03-31T13:25:58.564Z,50.08
2023-03-31T13:28:33.298Z,49.74
2023-03-31T13:31:03.588Z,49.97
2023-03-31T13:33:58.385Z,49.42
2023-03-31T13:36:50.898Z,48.99
2023-03-31T13:40:00.391Z,49.11
2023-03-31T13:42:52.650Z,48.26
2023-03-31T13:45:48.804Z,47.61
2023-03-31T13:48:54.919Z,46.88
2023-03-31T13:51:58.505Z,46.73
2023-03-31T13:55:06.959Z,47.19
2023-03-31T13:58:33.521Z,46.59
2023-03-31T14:01:53.231Z,45.91
2023-03-31T14:04:54.049Z,45.71
2023-03-31T14:07:33.320Z,45.40
2023-03-31T14:10:02.777Z,45.46
2023-03-31T14:12:35.686Z,45.27
2023-03-31T14:15:05.809Z,45.55
2023-03-31T14:17:40.790Z,44.96
2023-03-31T14:20:33.338Z,44.78
2023-03-31T14:23:14.960Z,43.62
2023-03-31T14:26:02.582Z,43.89
2023-03-31T14:29:11.440Z,42.86
2023-03-31T14:32:12.722Z,42.94
2023-03-31T14:34:52.578Z,43.75
2023-03-31T14:37:22.686Z,43.14
2023-03-31T14:39:55.024Z,42.55
2023-03-31T14:42:29.448Z,42.76
2023-03-31T14:45:02.751Z,41.80
2023-03-31T14:47:30.565Z,41.73
2023-03-31T14:50:18.727Z,41.60
2023-03-31T14:52:55.545Z,41.60
2023-03-31T14:55:35.641Z,41.76
2023-03-31T14:58:23.643Z,42.00
2023-03-31T15:00:53.108Z,41.89
2023-03-31T15:03:20.882Z,41.12
2023-03-31T15:05:49.878Z,41.54
2023-03-31T15:08:22.768Z,41.48
2023-03-31T15:11:02.472Z,41.40
2023-03-31T15:14:03.740Z,41.83
2023-03-31T15:16:43.356Z,41.49
2023-03-31T15:19:24.883Z,41.15
2023-03-31T15:22:18.977Z,41.17
2023-03-31T15:24:46.981Z,41.22
2023-03-31T15:27:37.964Z,41.17
2023-03-31T15:30:14.349Z,41.49
2023-03-31T15:32:42.219Z,41.79
2023-03-31T15:35:35.614Z,41.79
2023-03-31T15:38:06.233Z,41.44
2023-03-31T15:40:40.854Z,40.59
2023-03-31T15:43:31.300Z,40.55
2023-03-31T15:46:02.360Z,40.23
2023-03-31T15:48:48.569Z,40.41
2023-03-31T15:51:32.342Z,40.55
2023-03-31T15:53:59.921Z,40.71
2023-03-31T15:56:38.142Z,40.42
2023-03-31T15:59:07.036Z,40.93
2023-03-31T16:01:44.151Z,40.72
2023-03-31T16:04:14.597Z,41.08
2023-03-31T16:07:05.110Z,41.36
2023-03-31T16:09:49.289Z,41.50
2023-03-31T16:12:28.964Z,41.57
2023-03-31T16:15:14.096Z,41.89
2023-03-31T16:18:10.077Z,41.85
2023-03-31T16:20:53.359Z,42.09
2023-03-31T16:23:31.515Z,42.98
2023-03-31T16:26:00.331Z,42.19
2023-03-31T16:28:37.252Z,42.54
2023-03-31T16:31:25.885Z,42.86
2023-03-31T16:33:56.658Z,42.96
2023-03-31T16:36:24.317Z,42.53
2023-03-31T16:38:53.961Z,41.97
2023-03-31T16:41:23.402Z,41.70
2023-03-31T16:43:54.683Z,41.61
2023-03-31T16:46:23.682Z,41.60
2023-03-31T16:48:52.713Z,41.33
2023-03-31T16:51:21.359Z,41.57
2023-03-31T16:53:48.970Z,41.87
2023-03-31T16:56:16.681Z,41.89
2023-03-31T16:58:45.010Z,42.05
2023-03-31T17:01:12.737Z,41.91
2023-03-31T17:03:41.996Z,42.09
2023-03-31T17:06:12.823Z,42.50
2023-03-31T17:08:40.657Z,42.85
2023-03-31T17:11:12.541Z,43.31
2023-03-31T17:13:42.912Z,43.45
2023-03-31T17:18:42.656Z,43.37
2023-03-31T17:21:13.757Z,43.36
2023-03-31T17:23:42.416Z,43.48
2023-03-31T17:26:12.547Z,43.77
2023-03-31T17:28:41.006Z,43.75
2023-03-31T17:31:20.574Z,43.78
2023-03-31T17:33:48.390Z,44.06
2023-03-31T17:36:16.636Z,44.01
2023-03-31T17:38:44.781Z,43.89
2023-03-31T17:41:13.625Z,44.30
2023-03-31T17:43:46.801Z,45.48
2023-03-31T17:46:15.331Z,46.16
2023-03-31T17:48:43.613Z,47.40
2023-03-31T17:51:16.239Z,48.18
2023-03-31T17:53:46.216Z,48.68
2023-03-31T17:56:15.495Z,49.21
2023-03-31T17:58:43.810Z,49.50
2023-03-31T18:01:12.589Z,49.13
2023-03-31T18:03:41.215Z,49.89
2023-03-31T18:06:12.399Z,49.99
2023-03-31T18:08:41.669Z,50.51
2023-03-31T18:11:10.424Z,50.56
2023-03-31T18:13:37.944Z,50.53
2023-03-31T18:16:09.446Z,51.09
2023-03-31T18:18:37.924Z,50.56
2023-03-31T18:21:07.828Z,51.11
2023-03-31T18:23:36.313Z,51.13
2023-03-31T18:26:08.818Z,51.32
2023-03-31T18:28:36.618Z,51.34
2023-03-31T18:31:07.513Z,51.51
2023-03-31T18:33:35.642Z,51.55
2023-03-31T18:36:03.619Z,51.56
2023-03-31T18:38:32.532Z,51.72
2023-03-31T18:41:00.389Z,51.87
2023-03-31T18:43:27.920Z,51.59
2023-03-31T18:45:58.407Z,51.74
2023-03-31T18:48:25.892Z,52.09
2023-03-31T18:50:54.003Z,51.94
2023-03-31T18:53:24.143Z,51.88
2023-03-31T18:55:57.801Z,51.83
2023-03-31T18:58:28.748Z,51.98
2023-03-31T19:00:57.860Z,51.96
2023-03-31T19:03:26.821Z,51.86
2023-03-31T19:06:22.347Z,52.20
2023-03-31T19:08:50.292Z,52.34
2023-03-31T19:11:17.782Z,52.16
2023-03-31T19:13:45.453Z,52.36
2023-03-31T19:16:14.318Z,52.47
2023-03-31T19:18:43.511Z,52.44
2023-03-31T19:21:11.748Z,52.63
2023-03-31T19:23:39.577Z,52.33
2023-03-31T19:26:07.643Z,52.52
2023-03-31T19:28:35.501Z,51.91
2023-03-31T19:31:04.705Z,52.10
2023-03-31T19:33:32.792Z,52.45
2023-03-31T19:36:00.412Z,52.11
2023-03-31T19:38:31.853Z,52.12
2023-03-31T19:41:00.062Z,52.23
2023-03-31T19:43:29.596Z,52.03
2023-03-31T19:46:00.366Z,52.39
2023-03-31T19:48:32.012Z,51.84
2023-03-31T19:51:04.042Z,51.80
2023-03-31T19:53:32.557Z,51.44
2023-03-31T19:56:09.906Z,51.66
2023-03-31T19:58:38.221Z,51.54
2023-03-31T20:01:23.733Z,51.75
2023-03-31T20:03:52.991Z,51.87
2023-03-31T20:06:24.788Z,52.24
2023-03-31T20:08:58.741Z,51.97
2023-03-31T20:11:28.713Z,52.00
2023-03-31T20:13:57.158Z,52.11
2023-03-31T20:16:28.015Z,51.82
2023-03-31T20:18:59.309Z,51.99
2023-03-31T20:21:29.624Z,51.90
2023-03-31T20:23:58.694Z,51.92
2023-03-31T20:26:29.597Z,52.01
2023-03-31T20:28:59.148Z,51.84
2023-03-31T20:31:30.092Z,51.79
2023-03-31T20:33:58.313Z,51.74
2023-03-31T20:36:32.022Z,51.74
2023-03-31T20:39:02.651Z,51.53
2023-03-31T20:41:31.015Z,51.58
2023-03-31T20:43:59.190Z,52.04
2023-03-31T20:46:27.289Z,51.95
2023-03-31T20:48:57.051Z,52.13
2023-03-31T20:51:30.622Z,52.62
2023-03-31T20:54:00.215Z,51.94
2023-03-31T20:56:31.593Z,52.41
2023-03-31T20:58:59.984Z,52.14
2023-03-31T21:01:30.884Z,52.40
2023-03-31T21:04:01.050Z,52.56
2023-03-31T21:06:32.626Z,52.09
2023-03-31T21:09:00.448Z,51.96
2023-03-31T21:11:29.364Z,51.82
2023-03-31T21:13:56.868Z,51.89
2023-03-31T21:16:25.245Z,51.67
2023-03-31T21:18:54.880Z,52.01
2023-03-31T21:21:24.388Z,51.56
2023-03-31T21:23:53.000Z,51.62
2023-03-31T21:26:21.951Z,51.71
2023-03-31T21:28:54.194Z,51.75
2023-03-31T21:31:24.949Z,51.67
2023-03-31T21:33:56.267Z,51.67
2023-03-31T21:36:25.461Z,51.75
2023-03-31T21:38:54.380Z,51.97
2023-03-31T21:41:28.350Z,52.08
2023-03-31T21:43:56.831Z,52.00
2023-03-31T21:46:31.677Z,52.18
2023-03-31T21:48:59.612Z,52.27
2023-03-31T21:51:28.434Z,52.75
2023-03-31T21:53:56.323Z,53.35
2023-03-31T21:56:28.151Z,53.45
2023-03-31T21:58:55.849Z,53.98
2023-03-31T22:01:23.605Z,53.57
2023-03-31T22:03:51.999Z,52.92
2023-03-31T22:06:20.091Z,53.33
2023-03-31T22:08:47.702Z,53.63
2023-03-31T22:11:15.858Z,52.92
2023-03-31T22:13:43.388Z,53.02
2023-03-31T22:16:18.350Z,53.58
2023-03-31T22:18:47.525Z,53.25
2023-03-31T22:21:21.965Z,52.99
2023-03-31T22:23:53.190Z,52.53
2023-03-31T22:26:21.891Z,52.75
2023-03-31T22:28:50.345Z,52.84
2023-03-31T22:31:18.337Z,53.02
2023-03-31T22:33:46.278Z,52.75
2023-03-31T22:36:14.348Z,52.93
2023-03-31T22:38:41.942Z,52.80
2023-03-31T22:41:09.475Z,52.90
2023-03-31T22:43:36.973Z,52.95
2023-03-31T22:46:06.869Z,53.20
2023-03-31T22:48:35.035Z,53.07
2023-03-31T22:51:06.276Z,52.97
2023-03-31T22:53:34.087Z,52.80
2023-03-31T22:56:11.888Z,52.95
2023-03-31T22:58:39.651Z,52.35
2023-03-31T23:01:09.583Z,52.60
2023-03-31T23:03:37.541Z,52.51
2023-03-31T23:06:06.094Z,52.84
2023-03-31T23:08:35.695Z,52.45
2023-03-31T23:11:07.475Z,52.56
2023-03-31T23:13:35.963Z,52.85
2023-03-31T23:16:10.687Z,52.40
2023-03-31T23:18:44.221Z,52.23
2023-03-31T23:21:13.884Z,52.94
2023-03-31T23:23:42.228Z,52.67
2023-03-31T23:26:10.185Z,52.35
2023-03-31T23:28:38.055Z,52.74
2023-03-31T23:31:06.116Z,52.63
2023-03-31T23:33:33.720Z,52.66
2023-03-31T23:36:04.487Z,52.04
2023-03-31T23:38:32.869Z,52.18
2023-03-31T23:41:02.182Z,52.22
2023-03-31T23:43:30.196Z,52.06
2023-03-31T23:45:57.780Z,51.99
2023-03-31T23:48:25.321Z,51.59
2023-03-31T23:50:52.877Z,51.62
2023-03-31T23:53:20.497Z,51.29
2023-03-31T23:56:01.248Z,51.66
2023-03-31T23:58:29.385Z,51.54
